sensor_id;sensor_type;location;lat;lon;timestamp;pressure;altitude;pressure_sealevel;temperature;humidity
9774;BME280;4926;42.670;23.316;2023-02-15T00:01:49;95725.75;;;2.79;95.73
9774;BME280;4926;42.670;23.316;2023-02-15T00:04:18;95726.19;;;2.76;96.13
9774;BME280;4926;42.670;23.316;2023-02-15T00:06:44;95678.44;;;2.35;96.50
9774;BME280;4926;42.670;23.316;2023-02-15T00:09:13;95739.50;;;2.81;97.29
9774;BME280;4926;42.670;23.316;2023-02-15T00:11:40;95745.16;;;2.78;97.19
9774;BME280;4926;42.670;23.316;2023-02-15T00:14:10;95751.19;;;2.85;97.64
9774;BME280;4926;42.670;23.316;2023-02-15T00:16:40;95730.59;;;2.82;96.80
9774;BME280;4926;42.670;23.316;2023-02-15T00:19:08;95750.63;;;2.83;97.14
9774;BME280;4926;42.670;23.316;2023-02-15T00:21:38;95751.41;;;2.84;97.14
9774;BME280;4926;42.670;23.316;2023-02-15T00:24:07;95758.50;;;2.83;97.56
9774;BME280;4926;42.670;23.316;2023-02-15T00:26:37;95752.81;;;2.86;96.97
9774;BME280;4926;42.670;23.316;2023-02-15T00:29:04;95755.25;;;2.88;97.09
9774;BME280;4926;42.670;23.316;2023-02-15T00:31:32;95757.06;;;2.87;97.18
9774;BME280;4926;42.670;23.316;2023-02-15T00:34:01;95765.53;;;2.89;96.75
9774;BME280;4926;42.670;23.316;2023-02-15T00:36:34;95753.59;;;2.93;96.82
9774;BME280;4926;42.670;23.316;2023-02-15T00:39:04;95759.09;;;2.85;97.02
9774;BME280;4926;42.670;23.316;2023-02-15T00:41:33;95757.66;;;2.89;97.35
9774;BME280;4926;42.670;23.316;2023-02-15T00:44:04;95763.94;;;2.88;97.32
9774;BME280;4926;42.670;23.316;2023-02-15T00:46:33;95758.09;;;2.86;97.19
9774;BME280;4926;42.670;23.316;2023-02-15T00:49:03;95754.03;;;2.90;97.78
9774;BME280;4926;42.670;23.316;2023-02-15T00:51:30;95757.22;;;2.92;97.71
9774;BME280;4926;42.670;23.316;2023-02-15T00:54:02;95749.97;;;2.88;97.04
9774;BME280;4926;42.670;23.316;2023-02-15T00:56:29;95760.13;;;2.84;97.40
9774;BME280;4926;42.670;23.316;2023-02-15T00:58:55;95757.47;;;2.84;97.46
9774;BME280;4926;42.670;23.316;2023-02-15T01:01:23;95753.22;;;2.90;97.05
9774;BME280;4926;42.670;23.316;2023-02-15T01:03:54;95760.13;;;2.84;97.78
9774;BME280;4926;42.670;23.316;2023-02-15T01:06:20;95752.63;;;2.88;98.02
9774;BME280;4926;42.670;23.316;2023-02-15T01:08:47;95744.50;;;2.89;97.97
9774;BME280;4926;42.670;23.316;2023-02-15T01:11:22;95747.31;;;2.94;97.59
9774;BME280;4926;42.670;23.316;2023-02-15T01:13:49;95740.25;;;2.95;97.77
9774;BME280;4926;42.670;23.316;2023-02-15T01:16:19;95753.59;;;2.93;97.03
9774;BME280;4926;42.670;23.316;2023-02-15T01:18:49;95746.31;;;2.95;96.48
9774;BME280;4926;42.670;23.316;2023-02-15T01:21:18;95737.00;;;2.93;96.73
9774;BME280;4926;42.670;23.316;2023-02-15T01:23:46;95748.50;;;2.98;96.92
9774;BME280;4926;42.670;23.316;2023-02-15T01:26:16;95743.25;;;2.98;96.81
9774;BME280;4926;42.670;23.316;2023-02-15T01:28:43;95738.44;;;2.95;96.75
9774;BME280;4926;42.670;23.316;2023-02-15T01:31:15;95740.19;;;3.01;96.63
9774;BME280;4926;42.670;23.316;2023-02-15T01:33:45;95742.22;;;2.99;97.04
9774;BME280;4926;42.670;23.316;2023-02-15T01:36:15;95734.00;;;2.89;96.75
9774;BME280;4926;42.670;23.316;2023-02-15T01:38:42;95737.47;;;2.83;98.00
9774;BME280;4926;42.670;23.316;2023-02-15T01:41:09;95729.38;;;2.78;98.88
9774;BME280;4926;42.670;23.316;2023-02-15T01:43:54;95724.13;;;2.78;98.69
9774;BME280;4926;42.670;23.316;2023-02-15T01:46:25;95727.78;;;2.77;99.22
9774;BME280;4926;42.670;23.316;2023-02-15T01:48:56;95723.34;;;2.78;99.43
9774;BME280;4926;42.670;23.316;2023-02-15T01:51:32;95716.50;;;2.70;100.00
9774;BME280;4926;42.670;23.316;2023-02-15T01:54:03;95719.34;;;2.69;100.00
9774;BME280;4926;42.670;23.316;2023-02-15T01:56:33;95710.03;;;2.73;99.85
9774;BME280;4926;42.670;23.316;2023-02-15T01:59:09;95711.59;;;2.80;99.63
9774;BME280;4926;42.670;23.316;2023-02-15T02:01:39;95715.47;;;2.78;99.97
9774;BME280;4926;42.670;23.316;2023-02-15T02:04:12;95718.69;;;2.80;99.65
9774;BME280;4926;42.670;23.316;2023-02-15T02:06:44;95712.81;;;2.78;99.27
9774;BME280;4926;42.670;23.316;2023-02-15T02:09:13;95714.91;;;2.69;100.00
9774;BME280;4926;42.670;23.316;2023-02-15T02:11:40;95720.16;;;2.69;100.00
9774;BME280;4926;42.670;23.316;2023-02-15T02:14:09;95716.06;;;2.73;100.00
9774;BME280;4926;42.670;23.316;2023-02-15T02:16:45;95716.25;;;2.78;100.00
9774;BME280;4926;42.670;23.316;2023-02-15T02:22:53;95719.13;;;2.70;100.00
9774;BME280;4926;42.670;23.316;2023-02-15T02:26:00;95731.06;;;2.66;100.00
9774;BME280;4926;42.670;23.316;2023-02-15T02:28:53;95734.91;;;2.70;100.00
9774;BME280;4926;42.670;23.316;2023-02-15T02:31:39;95739.13;;;2.71;100.00
9774;BME280;4926;42.670;23.316;2023-02-15T02:34:15;95728.59;;;2.71;100.00
9774;BME280;4926;42.670;23.316;2023-02-15T02:36:49;95730.69;;;2.63;100.00
9774;BME280;4926;42.670;23.316;2023-02-15T02:39:28;95742.41;;;2.67;100.00
9774;BME280;4926;42.670;23.316;2023-02-15T02:42:07;95729.81;;;2.75;100.00
9774;BME280;4926;42.670;23.316;2023-02-15T02:44:41;95729.81;;;2.75;100.00
9774;BME280;4926;42.670;23.316;2023-02-15T02:47:13;95734.63;;;2.85;100.00
9774;BME280;4926;42.670;23.316;2023-02-15T02:49:47;95737.47;;;2.83;100.00
9774;BME280;4926;42.670;23.316;2023-02-15T02:52:36;95728.56;;;2.84;100.00
9774;BME280;4926;42.670;23.316;2023-02-15T02:55:06;95728.53;;;2.91;100.00
9774;BME280;4926;42.670;23.316;2023-02-15T02:57:46;95731.38;;;2.89;100.00
9774;BME280;4926;42.670;23.316;2023-02-15T03:00:18;95746.69;;;2.99;100.00
9774;BME280;4926;42.670;23.316;2023-02-15T03:02:47;95736.00;;;2.94;99.82
9774;BME280;4926;42.670;23.316;2023-02-15T03:05:21;95735.78;;;2.95;99.87
9774;BME280;4926;42.670;23.316;2023-02-15T03:07:51;95744.28;;;2.97;100.00
9774;BME280;4926;42.670;23.316;2023-02-15T03:10:22;95745.13;;;2.91;100.00
9774;BME280;4926;42.670;23.316;2023-02-15T03:12:52;95746.53;;;2.87;100.00
9774;BME280;4926;42.670;23.316;2023-02-15T03:15:22;95753.44;;;2.88;100.00
9774;BME280;4926;42.670;23.316;2023-02-15T03:17:56;95751.97;;;2.92;100.00
9774;BME280;4926;42.670;23.316;2023-02-15T03:20:28;95750.75;;;2.95;100.00
9774;BME280;4926;42.670;23.316;2023-02-15T03:22:59;95750.97;;;2.93;100.00
9774;BME280;4926;42.670;23.316;2023-02-15T03:25:30;95754.19;;;2.95;100.00
9774;BME280;4926;42.670;23.316;2023-02-15T03:28:01;95747.91;;;2.96;100.00
9774;BME280;4926;42.670;23.316;2023-02-15T03:30:31;95751.31;;;3.03;100.00
9774;BME280;4926;42.670;23.316;2023-02-15T03:33:00;95753.91;;;3.10;100.00
9774;BME280;4926;42.670;23.316;2023-02-15T03:35:38;95750.72;;;3.01;100.00
9774;BME280;4926;42.670;23.316;2023-02-15T03:38:10;95743.25;;;2.98;100.00
9774;BME280;4926;42.670;23.316;2023-02-15T03:40:42;95757.38;;;3.04;100.00
9774;BME280;4926;42.670;23.316;2023-02-15T03:43:32;95748.06;;;3.08;100.00
9774;BME280;4926;42.670;23.316;2023-02-15T03:46:06;95746.81;;;3.10;99.80
9774;BME280;4926;42.670;23.316;2023-02-15T03:48:39;95747.00;;;3.15;99.61
9774;BME280;4926;42.670;23.316;2023-02-15T03:51:16;95726.88;;;2.96;99.91
9774;BME280;4926;42.670;23.316;2023-02-15T03:54:21;95751.06;;;3.11;100.00
9774;BME280;4926;42.670;23.316;2023-02-15T03:57:03;95744.38;;;3.15;99.48
9774;BME280;4926;42.670;23.316;2023-02-15T03:59:47;95750.06;;;3.12;100.00
9774;BME280;4926;42.670;23.316;2023-02-15T04:02:34;95761.94;;;3.21;99.28
9774;BME280;4926;42.670;23.316;2023-02-15T04:05:05;95743.97;;;3.12;99.34
9774;BME280;4926;42.670;23.316;2023-02-15T04:07:35;95748.81;;;3.15;99.80
9774;BME280;4926;42.670;23.316;2023-02-15T04:10:01;95754.13;;;3.08;99.74
9774;BME280;4926;42.670;23.316;2023-02-15T04:12:45;95762.19;;;3.13;100.00
9774;BME280;4926;42.670;23.316;2023-02-15T04:15:12;95773.09;;;3.17;99.82
9774;BME280;4926;42.670;23.316;2023-02-15T04:17:57;95771.31;;;3.11;99.83
9774;BME280;4926;42.670;23.316;2023-02-15T04:20:23;95766.44;;;3.14;100.00
9774;BME280;4926;42.670;23.316;2023-02-15T04:23:09;95772.09;;;3.11;100.00
9774;BME280;4926;42.670;23.316;2023-02-15T04:25:53;95770.88;;;3.14;100.00
9774;BME280;4926;42.670;23.316;2023-02-15T04:28:22;95784.25;;;3.12;100.00
9774;BME280;4926;42.670;23.316;2023-02-15T04:30:52;95793.13;;;3.18;100.00
9774;BME280;4926;42.670;23.316;2023-02-15T04:33:21;95789.84;;;3.22;100.00
9774;BME280;4926;42.670;23.316;2023-02-15T04:35:48;95799.78;;;3.20;100.00
9774;BME280;4926;42.670;23.316;2023-02-15T04:38:19;95784.25;;;3.12;100.00
9774;BME280;4926;42.670;23.316;2023-02-15T04:40:49;95793.53;;;3.21;100.00
9774;BME280;4926;42.670;23.316;2023-02-15T04:43:19;95794.69;;;3.25;100.00
9774;BME280;4926;42.670;23.316;2023-02-15T04:45:50;95790.72;;;3.16;100.00
9774;BME280;4926;42.670;23.316;2023-02-15T04:48:17;95788.84;;;3.23;100.00
9774;BME280;4926;42.670;23.316;2023-02-15T04:50:44;95789.81;;;3.29;100.00
9774;BME280;4926;42.670;23.316;2023-02-15T04:53:11;95783.00;;;3.21;100.00
9774;BME280;4926;42.670;23.316;2023-02-15T04:55:46;95796.75;;;3.23;100.00
9774;BME280;4926;42.670;23.316;2023-02-15T04:58:13;95798.34;;;3.24;100.00
9774;BME280;4926;42.670;23.316;2023-02-15T05:00:43;95783.78;;;3.22;100.00
9774;BME280;4926;42.670;23.316;2023-02-15T05:03:09;95803.63;;;3.24;100.00
9774;BME280;4926;42.670;23.316;2023-02-15T05:05:36;95799.56;;;3.28;100.00
9774;BME280;4926;42.670;23.316;2023-02-15T05:08:04;95798.69;;;3.34;100.00
9774;BME280;4926;42.670;23.316;2023-02-15T05:10:31;95800.72;;;3.32;100.00
9774;BME280;4926;42.670;23.316;2023-02-15T05:13:03;95802.81;;;3.24;100.00
9774;BME280;4926;42.670;23.316;2023-02-15T05:15:30;95809.88;;;3.30;100.00
9774;BME280;4926;42.670;23.316;2023-02-15T05:17:57;95816.72;;;3.31;100.00
9774;BME280;4926;42.670;23.316;2023-02-15T05:20:23;95819.34;;;3.31;100.00
9774;BME280;4926;42.670;23.316;2023-02-15T05:22:53;95817.53;;;3.31;100.00
9774;BME280;4926;42.670;23.316;2023-02-15T05:25:20;95816.72;;;3.37;100.00
9774;BME280;4926;42.670;23.316;2023-02-15T05:28:08;95822.91;;;3.50;100.00
9774;BME280;4926;42.670;23.316;2023-02-15T05:30:47;95823.75;;;3.43;100.00
9774;BME280;4926;42.670;23.316;2023-02-15T05:33:14;95830.81;;;3.50;100.00
9774;BME280;4926;42.670;23.316;2023-02-15T05:35:41;95839.09;;;3.47;99.69
9774;BME280;4926;42.670;23.316;2023-02-15T05:38:08;95836.75;;;3.38;99.98
9774;BME280;4926;42.670;23.316;2023-02-15T05:40:35;95840.34;;;3.44;99.48
9774;BME280;4926;42.670;23.316;2023-02-15T05:43:02;95842.59;;;3.40;99.34
9774;BME280;4926;42.670;23.316;2023-02-15T05:45:35;95843.19;;;3.42;98.76
9774;BME280;4926;42.670;23.316;2023-02-15T05:48:07;95840.75;;;3.48;98.99
9774;BME280;4926;42.670;23.316;2023-02-15T05:50:33;95826.97;;;3.46;99.18
9774;BME280;4926;42.670;23.316;2023-02-15T05:53:00;95841.94;;;3.52;98.12
9774;BME280;4926;42.670;23.316;2023-02-15T05:55:27;95831.47;;;3.38;98.09
9774;BME280;4926;42.670;23.316;2023-02-15T05:57:53;95843.16;;;3.49;98.74
9774;BME280;4926;42.670;23.316;2023-02-15T06:00:20;95839.50;;;3.50;98.09
9774;BME280;4926;42.670;23.316;2023-02-15T06:02:50;95840.94;;;3.46;97.83
9774;BME280;4926;42.670;23.316;2023-02-15T06:05:16;95844.97;;;3.49;98.03
9774;BME280;4926;42.670;23.316;2023-02-15T06:07:43;95844.34;;;3.53;97.96
9774;BME280;4926;42.670;23.316;2023-02-15T06:10:10;95841.50;;;3.55;97.85
9774;BME280;4926;42.670;23.316;2023-02-15T06:12:37;95847.22;;;3.52;96.70
9774;BME280;4926;42.670;23.316;2023-02-15T06:15:04;95838.19;;;3.66;97.45
9774;BME280;4926;42.670;23.316;2023-02-15T06:17:31;95841.84;;;3.65;97.06
9774;BME280;4926;42.670;23.316;2023-02-15T06:20:02;95848.84;;;3.77;95.80
9774;BME280;4926;42.670;23.316;2023-02-15T06:22:29;95844.66;;;3.70;95.57
9774;BME280;4926;42.670;23.316;2023-02-15T06:24:56;95849.47;;;3.79;95.90
9774;BME280;4926;42.670;23.316;2023-02-15T06:27:25;95849.47;;;3.79;95.32
9774;BME280;4926;42.670;23.316;2023-02-15T06:29:51;95831.31;;;3.65;94.88
9774;BME280;4926;42.670;23.316;2023-02-15T06:32:18;95850.78;;;3.64;95.27
9774;BME280;4926;42.670;23.316;2023-02-15T06:34:45;95851.72;;;3.69;95.14
9774;BME280;4926;42.670;23.316;2023-02-15T06:37:13;95843.03;;;3.69;95.30
9774;BME280;4926;42.670;23.316;2023-02-15T06:39:39;95846.47;;;3.69;94.86
9774;BME280;4926;42.670;23.316;2023-02-15T06:42:06;95849.06;;;3.76;94.28
9774;BME280;4926;42.670;23.316;2023-02-15T06:44:34;95846.22;;;3.77;94.45
9774;BME280;4926;42.670;23.316;2023-02-15T06:47:00;95852.31;;;3.78;93.93
9774;BME280;4926;42.670;23.316;2023-02-15T06:49:27;95841.19;;;3.76;93.88
9774;BME280;4926;42.670;23.316;2023-02-15T06:51:54;95845.34;;;3.90;93.61
9774;BME280;4926;42.670;23.316;2023-02-15T06:54:22;95849.13;;;3.94;92.61
9774;BME280;4926;42.670;23.316;2023-02-15T06:56:54;95840.47;;;3.87;91.89
9774;BME280;4926;42.670;23.316;2023-02-15T06:59:20;95851.34;;;3.97;91.97
9774;BME280;4926;42.670;23.316;2023-02-15T07:01:47;95852.13;;;4.04;90.67
9774;BME280;4926;42.670;23.316;2023-02-15T07:04:14;95845.22;;;4.03;90.50
9774;BME280;4926;42.670;23.316;2023-02-15T07:06:41;95844.81;;;4.06;89.73
9774;BME280;4926;42.670;23.316;2023-02-15T07:09:07;95846.09;;;3.97;90.07
9774;BME280;4926;42.670;23.316;2023-02-15T07:11:39;95856.25;;;4.18;90.09
9774;BME280;4926;42.670;23.316;2023-02-15T07:14:29;95836.78;;;4.19;89.03
9774;BME280;4926;42.670;23.316;2023-02-15T07:16:56;95842.38;;;4.29;87.58
9774;BME280;4926;42.670;23.316;2023-02-15T07:19:22;95840.69;;;4.10;87.73
9774;BME280;4926;42.670;23.316;2023-02-15T07:21:49;95853.50;;;4.31;87.57
9774;BME280;4926;42.670;23.316;2023-02-15T07:24:18;95855.06;;;4.38;86.25
9774;BME280;4926;42.670;23.316;2023-02-15T07:26:46;95854.56;;;4.48;85.83
9774;BME280;4926;42.670;23.316;2023-02-15T07:29:12;95847.25;;;4.50;85.57
9774;BME280;4926;42.670;23.316;2023-02-15T07:31:40;95856.78;;;4.51;84.75
9774;BME280;4926;42.670;23.316;2023-02-15T07:34:08;95851.38;;;4.64;84.69
9774;BME280;4926;42.670;23.316;2023-02-15T07:36:35;95846.69;;;4.66;83.65
9774;BME280;4926;42.670;23.316;2023-02-15T07:39:02;95831.22;;;4.70;83.73
9774;BME280;4926;42.670;23.316;2023-02-15T07:41:29;95845.47;;;4.69;83.30
9774;BME280;4926;42.670;23.316;2023-02-15T07:43:59;95846.69;;;4.66;83.14
9774;BME280;4926;42.670;23.316;2023-02-15T07:46:26;95842.31;;;4.60;83.65
9774;BME280;4926;42.670;23.316;2023-02-15T07:48:53;95838.09;;;4.71;83.53
9774;BME280;4926;42.670;23.316;2023-02-15T07:51:22;95844.78;;;4.73;82.88
9774;BME280;4926;42.670;23.316;2023-02-15T07:53:49;95832.78;;;4.77;82.86
9774;BME280;4926;42.670;23.316;2023-02-15T07:56:17;95828.66;;;4.81;82.88
9774;BME280;4926;42.670;23.316;2023-02-15T07:58:45;95837.03;;;4.78;82.34
9774;BME280;4926;42.670;23.316;2023-02-15T08:01:23;95840.38;;;4.67;82.95
9774;BME280;4926;42.670;23.316;2023-02-15T08:03:54;95832.78;;;4.77;82.93
9774;BME280;4926;42.670;23.316;2023-02-15T08:06:21;95837.75;;;4.85;83.07
9774;BME280;4926;42.670;23.316;2023-02-15T08:08:48;95841.94;;;4.93;82.85
9774;BME280;4926;42.670;23.316;2023-02-15T08:11:18;95844.66;;;5.04;82.50
9774;BME280;4926;42.670;23.316;2023-02-15T08:14:03;95840.75;;;4.89;82.71
9774;BME280;4926;42.670;23.316;2023-02-15T08:16:33;95851.25;;;4.95;82.80
9774;BME280;4926;42.670;23.316;2023-02-15T08:19:02;95834.66;;;4.88;82.36
9774;BME280;4926;42.670;23.316;2023-02-15T08:21:30;95846.69;;;5.02;82.91
9774;BME280;4926;42.670;23.316;2023-02-15T08:23:58;95846.13;;;5.00;81.63
9774;BME280;4926;42.670;23.316;2023-02-15T08:26:25;95849.50;;;4.89;81.24
9774;BME280;4926;42.670;23.316;2023-02-15T08:28:54;95861.22;;;4.75;80.97
9774;BME280;4926;42.670;23.316;2023-02-15T08:31:21;95863.69;;;4.70;81.26
9774;BME280;4926;42.670;23.316;2023-02-15T08:33:51;95855.78;;;4.70;81.83
9774;BME280;4926;42.670;23.316;2023-02-15T08:36:20;95859.88;;;4.66;81.77
9774;BME280;4926;42.670;23.316;2023-02-15T08:38:47;95853.25;;;4.57;81.79
9774;BME280;4926;42.670;23.316;2023-02-15T08:41:16;95860.91;;;4.65;81.66
9774;BME280;4926;42.670;23.316;2023-02-15T08:43:45;95851.84;;;4.79;81.79
9774;BME280;4926;42.670;23.316;2023-02-15T08:46:13;95855.50;;;4.96;81.04
9774;BME280;4926;42.670;23.316;2023-02-15T08:48:41;95854.47;;;4.97;80.11
9774;BME280;4926;42.670;23.316;2023-02-15T08:51:14;95854.47;;;4.97;79.82
9774;BME280;4926;42.670;23.316;2023-02-15T08:53:42;95848.91;;;4.87;78.85
9774;BME280;4926;42.670;23.316;2023-02-15T08:56:10;95854.47;;;4.97;78.82
9774;BME280;4926;42.670;23.316;2023-02-15T08:58:37;95849.78;;;4.99;78.46
9774;BME280;4926;42.670;23.316;2023-02-15T09:01:11;95855.94;;;5.11;78.35
9774;BME280;4926;42.670;23.316;2023-02-15T09:03:38;95848.16;;;5.16;77.84
9774;BME280;4926;42.670;23.316;2023-02-15T09:06:06;95855.06;;;5.17;77.77
9774;BME280;4926;42.670;23.316;2023-02-15T09:08:34;95852.59;;;5.34;77.15
9774;BME280;4926;42.670;23.316;2023-02-15T09:11:05;95854.66;;;5.32;77.13
9774;BME280;4926;42.670;23.316;2023-02-15T09:13:32;95849.91;;;5.40;76.48
9774;BME280;4926;42.670;23.316;2023-02-15T09:16:00;95841.06;;;5.46;76.11
9774;BME280;4926;42.670;23.316;2023-02-15T09:18:29;95839.97;;;5.54;75.28
9774;BME280;4926;42.670;23.316;2023-02-15T09:20:57;95851.00;;;5.51;76.00
9774;BME280;4926;42.670;23.316;2023-02-15T09:23:34;95843.44;;;5.54;75.69
9774;BME280;4926;42.670;23.316;2023-02-15T09:26:06;95837.50;;;5.70;75.09
9774;BME280;4926;42.670;23.316;2023-02-15T09:28:36;95840.25;;;5.76;74.49
9774;BME280;4926;42.670;23.316;2023-02-15T09:31:05;95844.41;;;5.72;73.73
9774;BME280;4926;42.670;23.316;2023-02-15T09:33:33;95844.34;;;5.60;73.46
9774;BME280;4926;42.670;23.316;2023-02-15T09:36:01;95838.06;;;5.72;72.89
9774;BME280;4926;42.670;23.316;2023-02-15T09:38:28;95852.38;;;5.83;72.87
9774;BME280;4926;42.670;23.316;2023-02-15T09:41:05;95843.63;;;5.83;72.91
9774;BME280;4926;42.670;23.316;2023-02-15T09:43:39;95844.06;;;5.80;72.82
9774;BME280;4926;42.670;23.316;2023-02-15T09:46:20;95849.75;;;5.83;73.00
9774;BME280;4926;42.670;23.316;2023-02-15T09:48:51;95841.78;;;5.53;73.79
9774;BME280;4926;42.670;23.316;2023-02-15T09:51:35;95835.28;;;5.56;73.32
9774;BME280;4926;42.670;23.316;2023-02-15T09:54:17;95841.50;;;5.61;74.01
9774;BME280;4926;42.670;23.316;2023-02-15T09:56:52;95845.06;;;5.67;74.37
9774;BME280;4926;42.670;23.316;2023-02-15T09:59:27;95843.56;;;5.59;74.79
9774;BME280;4926;42.670;23.316;2023-02-15T10:02:06;95832.78;;;5.43;74.62
9774;BME280;4926;42.670;23.316;2023-02-15T10:04:53;95843.09;;;5.62;74.14
9774;BME280;4926;42.670;23.316;2023-02-15T10:07:36;95840.78;;;5.54;74.77
9774;BME280;4926;42.670;23.316;2023-02-15T10:10:15;95843.25;;;5.79;74.43
9774;BME280;4926;42.670;23.316;2023-02-15T10:13:00;95826.38;;;6.10;72.20
9774;BME280;4926;42.670;23.316;2023-02-15T10:15:40;95831.88;;;6.20;71.13
9774;BME280;4926;42.670;23.316;2023-02-15T10:18:45;95819.44;;;5.97;71.74
9774;BME280;4926;42.670;23.316;2023-02-15T10:21:27;95825.78;;;5.96;71.36
9774;BME280;4926;42.670;23.316;2023-02-15T10:24:30;95823.84;;;5.74;73.16
9774;BME280;4926;42.670;23.316;2023-02-15T10:27:08;95826.38;;;5.80;73.25
9774;BME280;4926;42.670;23.316;2023-02-15T10:29:52;95828.41;;;5.96;72.96
9774;BME280;4926;42.670;23.316;2023-02-15T10:32:23;95824.72;;;5.97;73.45
9774;BME280;4926;42.670;23.316;2023-02-15T10:34:52;95818.84;;;5.84;73.63
9774;BME280;4926;42.670;23.316;2023-02-15T10:37:53;95820.25;;;5.98;73.27
9774;BME280;4926;42.670;23.316;2023-02-15T10:40:33;95804.53;;;6.14;72.31
9774;BME280;4926;42.670;23.316;2023-02-15T10:43:27;95807.53;;;6.29;71.58
9774;BME280;4926;42.670;23.316;2023-02-15T10:46:03;95782.94;;;6.29;71.37
9774;BME280;4926;42.670;23.316;2023-02-15T10:49:11;95800.16;;;6.77;69.65
9774;BME280;4926;42.670;23.316;2023-02-15T10:52:02;95785.03;;;7.01;68.40
9774;BME280;4926;42.670;23.316;2023-02-15T10:54:42;95788.28;;;6.92;68.09
9774;BME280;4926;42.670;23.316;2023-02-15T10:57:16;95786.09;;;6.89;68.02
9774;BME280;4926;42.670;23.316;2023-02-15T11:00:01;95789.22;;;6.74;68.79
9774;BME280;4926;42.670;23.316;2023-02-15T11:02:42;95768.28;;;6.72;68.01
9774;BME280;4926;42.670;23.316;2023-02-15T11:05:26;95788.22;;;6.75;68.28
9774;BME280;4926;42.670;23.316;2023-02-15T11:07:59;95789.31;;;6.79;68.07
9774;BME280;4926;42.670;23.316;2023-02-15T11:10:30;95784.31;;;6.66;68.21
9774;BME280;4926;42.670;23.316;2023-02-15T11:13:06;95781.88;;;6.76;68.34
9774;BME280;4926;42.670;23.316;2023-02-15T11:15:39;95785.09;;;6.78;68.03
9774;BME280;4926;42.670;23.316;2023-02-15T11:18:13;95782.34;;;6.73;68.78
9774;BME280;4926;42.670;23.316;2023-02-15T11:20:46;95791.19;;;6.78;68.67
9774;BME280;4926;42.670;23.316;2023-02-15T11:23:19;95784.63;;;6.81;68.45
9774;BME280;4926;42.670;23.316;2023-02-15T11:25:53;95775.09;;;6.57;68.95
9774;BME280;4926;42.670;23.316;2023-02-15T11:28:25;95779.59;;;6.45;69.37
9774;BME280;4926;42.670;23.316;2023-02-15T11:30:58;95793.16;;;6.60;68.88
9774;BME280;4926;42.670;23.316;2023-02-15T11:33:33;95782.56;;;6.60;68.58
9774;BME280;4926;42.670;23.316;2023-02-15T11:36:04;95779.25;;;6.53;68.53
9774;BME280;4926;42.670;23.316;2023-02-15T11:38:33;95777.97;;;6.44;68.61
9774;BME280;4926;42.670;23.316;2023-02-15T11:41:09;95784.88;;;6.45;68.64
9774;BME280;4926;42.670;23.316;2023-02-15T11:43:39;95773.28;;;6.34;69.20
9774;BME280;4926;42.670;23.316;2023-02-15T11:46:11;95770.19;;;6.26;69.93
9774;BME280;4926;42.670;23.316;2023-02-15T11:48:41;95760.84;;;6.23;70.20
9774;BME280;4926;42.670;23.316;2023-02-15T11:51:12;95760.97;;;6.17;70.26
9774;BME280;4926;42.670;23.316;2023-02-15T11:53:41;95743.06;;;6.19;69.73
9774;BME280;4926;42.670;23.316;2023-02-15T11:56:13;95752.94;;;6.23;69.69
9774;BME280;4926;42.670;23.316;2023-02-15T11:58:43;95753.63;;;6.19;70.55
9774;BME280;4926;42.670;23.316;2023-02-15T12:01:15;95755.09;;;6.15;70.24
9774;BME280;4926;42.670;23.316;2023-02-15T12:03:46;95745.47;;;6.09;70.58
9774;BME280;4926;42.670;23.316;2023-02-15T12:06:22;95739.13;;;6.10;70.47
9774;BME280;4926;42.670;23.316;2023-02-15T12:09:02;95734.75;;;6.04;70.77
9774;BME280;4926;42.670;23.316;2023-02-15T12:11:34;95726.63;;;6.05;70.71
9774;BME280;4926;42.670;23.316;2023-02-15T12:14:03;95732.94;;;6.16;70.58
9774;BME280;4926;42.670;23.316;2023-02-15T12:16:39;95726.03;;;6.15;70.11
9774;BME280;4926;42.670;23.316;2023-02-15T12:19:20;95737.66;;;6.14;69.88
9774;BME280;4926;42.670;23.316;2023-02-15T12:21:50;95724.53;;;6.19;70.00
9774;BME280;4926;42.670;23.316;2023-02-15T12:24:19;95726.03;;;6.15;70.46
9774;BME280;4926;42.670;23.316;2023-02-15T12:26:59;95726.72;;;6.22;70.33
9774;BME280;4926;42.670;23.316;2023-02-15T12:29:31;95722.47;;;6.32;70.24
9774;BME280;4926;42.670;23.316;2023-02-15T12:32:03;95729.47;;;6.27;70.05
9774;BME280;4926;42.670;23.316;2023-02-15T12:34:39;95709.94;;;6.28;70.25
9774;BME280;4926;42.670;23.316;2023-02-15T12:37:11;95714.41;;;6.39;70.10
9774;BME280;4926;42.670;23.316;2023-02-15T12:39:51;95711.53;;;6.29;70.18
9774;BME280;4926;42.670;23.316;2023-02-15T12:42:20;95707.75;;;6.36;69.97
9774;BME280;4926;42.670;23.316;2023-02-15T12:45:00;95705.53;;;6.45;69.62
9774;BME280;4926;42.670;23.316;2023-02-15T12:47:27;95701.41;;;6.49;69.80
9774;BME280;4926;42.670;23.316;2023-02-15T12:50:09;95695.66;;;6.52;69.45
9774;BME280;4926;42.670;23.316;2023-02-15T12:52:45;95686.66;;;6.53;69.76
9774;BME280;4926;42.670;23.316;2023-02-15T12:55:20;95690.00;;;6.48;70.03
9774;BME280;4926;42.670;23.316;2023-02-15T12:57:47;95687.81;;;6.57;69.64
9774;BME280;4926;42.670;23.316;2023-02-15T13:00:28;95686.31;;;6.61;68.77
9774;BME280;4926;42.670;23.316;2023-02-15T13:02:58;95683.44;;;6.62;68.58
9774;BME280;4926;42.670;23.316;2023-02-15T13:05:33;95694.69;;;6.58;68.75
9774;BME280;4926;42.670;23.316;2023-02-15T13:08:09;95681.38;;;6.53;68.73
9774;BME280;4926;42.670;23.316;2023-02-15T13:10:40;95677.81;;;6.59;68.86
9774;BME280;4926;42.670;23.316;2023-02-15T13:13:10;95675.16;;;6.59;68.99
9774;BME280;4926;42.670;23.316;2023-02-15T13:15:41;95691.84;;;6.59;69.22
9774;BME280;4926;42.670;23.316;2023-02-15T13:18:13;95678.97;;;6.51;69.37
9774;BME280;4926;42.670;23.316;2023-02-15T13:20:44;95676.56;;;6.50;69.56
9774;BME280;4926;42.670;23.316;2023-02-15T13:23:21;95671.47;;;6.60;69.40
9774;BME280;4926;42.670;23.316;2023-02-15T13:25:51;95679.28;;;6.55;69.47
9774;BME280;4926;42.670;23.316;2023-02-15T13:28:19;95676.75;;;6.60;69.46
9774;BME280;4926;42.670;23.316;2023-02-15T13:30:49;95676.84;;;6.65;68.98
9774;BME280;4926;42.670;23.316;2023-02-15T13:33:22;95679.50;;;6.65;68.82
9774;BME280;4926;42.670;23.316;2023-02-15T13:36:03;95681.22;;;6.71;68.90
9774;BME280;4926;42.670;23.316;2023-02-15T13:38:54;95675.50;;;6.62;69.02
9774;BME280;4926;42.670;23.316;2023-02-15T13:41:33;95675.25;;;6.64;68.86
9774;BME280;4926;42.670;23.316;2023-02-15T13:44:07;95672.13;;;6.67;68.48
9774;BME280;4926;42.670;23.316;2023-02-15T13:46:51;95671.34;;;6.66;68.36
9774;BME280;4926;42.670;23.316;2023-02-15T13:49:31;95678.81;;;6.69;68.72
9774;BME280;4926;42.670;23.316;2023-02-15T13:52:11;95681.31;;;6.76;68.73